createdAt,value
2019-03-22T00:03:20.568Z,13.00
2019-03-22T00:08:25.719Z,13.00
2019-03-22T00:13:31.050Z,13.00
2019-03-22T00:18:36.338Z,12.70
2019-03-22T00:23:42.113Z,12.90
2019-03-22T00:28:47.456Z,12.80
2019-03-22T00:33:52.876Z,12.60
2019-03-22T00:38:58.003Z,12.50
2019-03-22T00:49:08.986Z,12.30
2019-03-22T00:54:14.038Z,12.30
2019-03-22T00:59:19.513Z,12.00
2019-03-22T01:04:24.860Z,12.00
2019-03-22T01:09:30.150Z,11.80
2019-03-22T01:14:35.289Z,11.80
2019-03-22T01:19:40.740Z,11.40
2019-03-22T01:24:46.021Z,11.40
2019-03-22T01:29:51.247Z,13.30
2019-03-22T01:35:00.117Z,11.60
2019-03-22T01:40:07.181Z,11.90
2019-03-22T01:45:13.362Z,11.80
2019-03-22T01:50:19.417Z,11.70
2019-03-22T01:55:24.863Z,11.80
2019-03-22T02:00:30.462Z,11.70
2019-03-22T02:05:35.643Z,11.70
2019-03-22T02:10:40.904Z,11.80
2019-03-22T02:15:52.703Z,11.70
2019-03-22T02:21:01.314Z,11.60
2019-03-22T02:26:10.683Z,11.80
2019-03-22T02:31:16.137Z,11.90
2019-03-22T02:36:21.412Z,11.90
2019-03-22T02:41:26.567Z,12.10
2019-03-22T02:46:32.250Z,12.20
2019-03-22T02:51:37.459Z,12.00
2019-03-22T02:56:42.770Z,12.10
2019-03-22T03:01:48.131Z,12.10
2019-03-22T03:06:53.791Z,12.20
2019-03-22T03:11:59.383Z,12.20
2019-03-22T03:17:04.883Z,12.20
2019-03-22T03:22:10.239Z,12.00
2019-03-22T03:27:15.696Z,12.10
2019-03-22T03:32:20.942Z,12.10
2019-03-22T03:37:26.328Z,12.10
2019-03-22T03:42:32.235Z,12.00
2019-03-22T03:47:37.541Z,11.90
2019-03-22T03:52:42.823Z,11.90
2019-03-22T03:57:48.224Z,12.00
2019-03-22T04:02:53.670Z,12.00
2019-03-22T04:07:59.025Z,11.90
2019-03-22T04:13:04.955Z,11.90
2019-03-22T04:18:10.377Z,11.50
2019-03-22T04:23:15.616Z,11.60
2019-03-22T04:28:20.985Z,11.80
2019-03-22T04:33:26.283Z,11.80
2019-03-22T04:38:31.524Z,11.70
2019-03-22T04:43:36.991Z,11.70
2019-03-22T04:48:43.769Z,11.30
2019-03-22T04:53:56.642Z,11.30
2019-03-22T04:59:03.659Z,11.60
2019-03-22T05:04:10.019Z,11.60
2019-03-22T05:09:17.051Z,11.60
2019-03-22T05:14:24.254Z,11.60
2019-03-22T05:19:32.516Z,11.60
2019-03-22T05:24:38.752Z,11.60
2019-03-22T05:29:46.222Z,11.60
2019-03-22T05:34:51.446Z,11.60
2019-03-22T05:39:57.742Z,11.50
2019-03-22T05:45:03.197Z,11.50
2019-03-22T05:50:08.482Z,11.50
2019-03-22T05:55:13.661Z,11.50
2019-03-22T06:00:19.142Z,8.80
2019-03-22T06:05:24.354Z,11.60
2019-03-22T06:10:29.616Z,11.70
2019-03-22T06:15:36.459Z,11.70
2019-03-22T06:20:42.018Z,11.90
2019-03-22T06:25:49.568Z,9.10
2019-03-22T06:30:55.320Z,14.80
2019-03-22T06:36:00.683Z,12.40
2019-03-22T06:41:06.143Z,12.60
2019-03-22T06:46:11.433Z,12.80
2019-03-22T06:51:16.477Z,13.10
2019-03-22T06:56:21.792Z,13.30
2019-03-22T07:01:27.124Z,13.60
2019-03-22T07:06:32.691Z,14.00
2019-03-22T07:11:38.263Z,14.20
2019-03-22T07:16:43.702Z,14.50
2019-03-22T07:21:48.991Z,15.10
2019-03-22T07:26:54.209Z,15.70
2019-03-22T07:31:59.338Z,16.00
2019-03-22T07:37:04.714Z,16.30
2019-03-22T07:42:10.545Z,17.00
2019-03-22T07:47:15.844Z,17.60
2019-03-22T07:52:21.057Z,18.10
2019-03-22T07:57:26.267Z,18.80
2019-03-22T08:02:31.434Z,19.20
2019-03-22T08:07:36.693Z,19.80
2019-03-22T08:12:41.771Z,20.30
2019-03-22T08:17:47.190Z,20.60
2019-03-22T08:22:52.597Z,20.60
2019-03-22T08:27:57.845Z,20.80
2019-03-22T08:33:03.034Z,20.40
2019-03-22T08:38:14.287Z,21.70
2019-03-22T08:43:19.507Z,20.90
2019-03-22T08:48:24.746Z,22.30
2019-03-22T08:53:32.654Z,23.00
2019-03-22T08:58:37.904Z,22.40
2019-03-22T09:03:43.147Z,23.70
2019-03-22T09:08:48.446Z,23.70
2019-03-22T09:13:54.024Z,24.20
2019-03-22T09:18:59.385Z,25.10
2019-03-22T09:24:04.558Z,24.80
2019-03-22T09:29:09.637Z,24.30
2019-03-22T09:34:14.890Z,24.30
2019-03-22T09:39:20.074Z,24.70
2019-03-22T09:44:28.088Z,25.20
2019-03-22T09:49:32.348Z,24.60
2019-03-22T09:54:37.531Z,24.50
2019-03-22T09:59:42.844Z,24.00
2019-03-22T10:04:48.153Z,23.90
2019-03-22T10:09:53.869Z,25.30
2019-03-22T10:14:59.424Z,25.00
2019-03-22T10:20:05.099Z,24.60
2019-03-22T10:25:10.526Z,26.20
2019-03-22T10:30:16.783Z,24.30
2019-03-22T10:35:26.430Z,24.70
2019-03-22T10:40:29.166Z,26.20
2019-03-22T10:45:34.620Z,26.40
2019-03-22T10:50:39.846Z,26.40
2019-03-22T10:55:45.213Z,26.00
2019-03-22T11:00:50.650Z,27.80
2019-03-22T11:05:56.014Z,25.20
2019-03-22T11:11:01.221Z,27.10
2019-03-22T11:16:06.738Z,26.80
2019-03-22T11:21:15.415Z,26.80
2019-03-22T11:26:20.675Z,28.00
2019-03-22T11:31:28.538Z,29.10
2019-03-22T11:36:33.202Z,27.90
2019-03-22T11:41:41.297Z,27.40
2019-03-22T11:46:46.706Z,28.30
2019-03-22T11:51:51.923Z,30.70
2019-03-22T11:56:57.234Z,29.30
2019-03-22T12:02:02.679Z,29.50
2019-03-22T12:07:08.123Z,29.50
2019-03-22T12:12:13.347Z,27.70
2019-03-22T12:17:18.506Z,26.80
2019-03-22T12:22:23.747Z,29.90
2019-03-22T12:27:36.277Z,31.40
2019-03-22T12:32:36.189Z,27.00
2019-03-22T12:37:41.424Z,28.30
2019-03-22T12:42:46.821Z,29.20
2019-03-22T12:47:52.271Z,28.20
2019-03-22T12:52:57.643Z,29.80
2019-03-22T12:58:03.099Z,29.30
2019-03-22T13:03:08.563Z,32.50
2019-03-22T13:08:14.046Z,31.80
2019-03-22T13:13:19.227Z,27.80
2019-03-22T13:18:30.678Z,29.40
2019-03-22T13:23:35.833Z,29.40
2019-03-22T13:28:40.970Z,28.40
2019-03-22T13:33:46.266Z,30.30
2019-03-22T13:38:51.486Z,29.70
2019-03-22T13:43:56.689Z,29.10
2019-03-22T13:49:02.062Z,30.20
2019-03-22T13:54:07.327Z,31.00
2019-03-22T13:59:12.609Z,31.10
2019-03-22T14:04:17.845Z,29.00
2019-03-22T14:09:23.078Z,29.70
2019-03-22T14:14:28.503Z,29.60
2019-03-22T14:19:33.774Z,28.30
2019-03-22T14:24:42.855Z,26.20
2019-03-22T14:29:48.170Z,26.40
2019-03-22T14:34:53.590Z,27.10
2019-03-22T14:39:58.670Z,27.60
2019-03-22T14:45:04.163Z,26.90
2019-03-22T14:50:09.968Z,27.30
2019-03-22T14:55:15.274Z,25.20
2019-03-22T15:00:21.187Z,23.90
2019-03-22T15:05:27.266Z,25.80
2019-03-22T15:10:32.734Z,26.90
2019-03-22T15:15:56.145Z,25.20
2019-03-22T15:21:19.225Z,24.80
2019-03-22T15:26:49.759Z,24.40
2019-03-22T15:32:13.795Z,24.40
2019-03-22T15:37:37.329Z,25.20
2019-03-22T15:42:43.183Z,26.00
2019-03-22T15:47:48.611Z,25.50
2019-03-22T15:52:53.902Z,24.20
2019-03-22T15:57:59.353Z,24.70
2019-03-22T16:03:04.979Z,24.00
2019-03-22T16:08:10.221Z,23.70
2019-03-22T16:13:15.442Z,22.00
2019-03-22T16:18:20.706Z,21.60
2019-03-22T16:23:25.995Z,21.40
2019-03-22T16:28:31.338Z,21.10
2019-03-22T16:33:36.456Z,21.00
2019-03-22T16:38:41.853Z,21.10
2019-03-22T16:43:47.221Z,20.50
2019-03-22T16:48:52.412Z,20.50
2019-03-22T16:53:57.598Z,20.50
2019-03-22T16:59:02.883Z,20.20
2019-03-22T17:04:08.365Z,20.20
2019-03-22T17:09:13.801Z,20.00
2019-03-22T17:14:19.228Z,19.90
2019-03-22T17:19:24.542Z,19.90
2019-03-22T17:24:29.834Z,19.80
2019-03-22T17:29:35.233Z,19.60
2019-03-22T17:34:40.629Z,19.50
2019-03-22T17:39:46.173Z,19.30
2019-03-22T17:44:51.998Z,19.20
2019-03-22T17:49:57.289Z,19.00
2019-03-22T17:55:02.819Z,18.90
2019-03-22T18:00:08.450Z,18.80
2019-03-22T18:05:13.747Z,18.60
2019-03-22T18:10:19.232Z,18.40
2019-03-22T18:15:24.493Z,18.30
2019-03-22T18:20:29.957Z,18.10
2019-03-22T18:25:35.475Z,18.00
2019-03-22T18:30:40.963Z,17.90
2019-03-22T18:35:46.281Z,17.60
2019-03-22T18:40:51.613Z,17.60
2019-03-22T18:45:58.608Z,17.30
2019-03-22T18:51:04.048Z,17.30
2019-03-22T18:56:09.347Z,17.20
2019-03-22T19:01:14.515Z,17.00
2019-03-22T19:06:26.154Z,16.90
2019-03-22T19:11:31.505Z,16.90
2019-03-22T19:16:36.792Z,16.70
2019-03-22T19:21:42.063Z,16.70
2019-03-22T19:26:47.293Z,16.60
2019-03-22T19:31:52.579Z,16.50
2019-03-22T19:36:57.692Z,16.50
2019-03-22T19:42:02.833Z,16.50
2019-03-22T19:47:08.076Z,16.70
2019-03-22T19:52:13.307Z,17.00
2019-03-22T19:57:18.720Z,17.00
2019-03-22T20:02:23.884Z,17.00
2019-03-22T20:07:29.299Z,17.00
2019-03-22T20:12:35.631Z,16.90
2019-03-22T20:17:40.911Z,16.90
2019-03-22T20:22:46.208Z,16.70
2019-03-22T20:27:51.390Z,16.50
2019-03-22T20:32:57.534Z,16.00
2019-03-22T20:38:02.818Z,15.30
2019-03-22T20:43:08.209Z,15.20
2019-03-22T20:48:13.386Z,15.60
2019-03-22T20:53:18.741Z,16.00
2019-03-22T20:58:24.057Z,16.00
2019-03-22T21:03:29.577Z,15.90
2019-03-22T21:08:34.835Z,15.90
2019-03-22T21:13:40.047Z,15.30
2019-03-22T21:18:45.348Z,15.00
2019-03-22T21:23:50.535Z,14.90
2019-03-22T21:28:55.732Z,14.50
2019-03-22T21:34:00.989Z,14.50
2019-03-22T21:39:07.660Z,14.10
2019-03-22T21:44:12.978Z,14.20
2019-03-22T21:49:18.227Z,14.70
2019-03-22T21:54:23.592Z,14.50
2019-03-22T21:59:28.737Z,14.30
2019-03-22T22:04:34.020Z,14.10
2019-03-22T22:09:39.412Z,14.50
2019-03-22T22:14:44.537Z,14.80
2019-03-22T22:19:49.809Z,14.00
2019-03-22T22:29:59.411Z,14.20
2019-03-22T22:35:05.237Z,13.50
2019-03-22T22:40:11.086Z,13.50
2019-03-22T22:45:16.275Z,13.40
2019-03-22T22:50:21.777Z,13.40
2019-03-22T22:55:26.987Z,13.30
2019-03-22T23:00:32.333Z,13.40
2019-03-22T23:05:37.758Z,13.60
2019-03-22T23:10:42.918Z,14.10
2019-03-22T23:15:48.010Z,14.60
2019-03-22T23:20:53.548Z,14.90
2019-03-22T23:25:58.799Z,15.00
2019-03-22T23:31:04.205Z,14.90
2019-03-22T23:36:19.550Z,14.80
2019-03-22T23:41:16.433Z,14.90
2019-03-22T23:46:22.522Z,14.70
2019-03-22T23:51:27.837Z,14.70
2019-03-22T23:56:33.466Z,14.70
